createdAt,value
2022-08-28T00:01:27.554Z,101918.56
2022-08-28T00:03:55.760Z,101916.75
2022-08-28T00:06:23.480Z,101925.78
2022-08-28T00:08:51.182Z,101927.59
2022-08-28T00:11:21.195Z,101923.16
2022-08-28T00:13:49.198Z,101934.72
2022-08-28T00:16:18.136Z,101923.09
2022-08-28T00:18:47.606Z,101926.66
2022-08-28T00:21:16.038Z,101935.66
2022-08-28T00:23:44.040Z,101923.09
2022-08-28T00:26:32.280Z,101936.59
2022-08-28T00:29:01.117Z,101941.91
2022-08-28T00:31:28.972Z,101941.13
2022-08-28T00:33:56.719Z,101939.28
2022-08-28T00:36:24.557Z,101942.94
2022-08-28T00:38:52.350Z,101943.81
2022-08-28T00:41:24.601Z,101941.22
2022-08-28T00:44:05.965Z,101937.56
2022-08-28T00:46:35.169Z,101934.00
2022-08-28T00:49:02.994Z,101927.78
2022-08-28T00:51:48.619Z,101922.41
2022-08-28T00:54:16.699Z,101923.25
2022-08-28T00:56:44.776Z,101920.56
2022-08-28T00:59:14.424Z,101923.25
2022-08-28T01:01:43.726Z,101928.72
2022-08-28T01:04:16.944Z,101926.03
2022-08-28T01:06:45.075Z,101926.03
2022-08-28T01:09:15.155Z,101931.44
2022-08-28T01:11:49.468Z,101935.03
2022-08-28T01:14:19.938Z,101926.13
2022-08-28T01:16:52.833Z,101927.94
2022-08-28T01:19:23.114Z,101932.34
2022-08-28T01:21:54.790Z,101931.44
2022-08-28T01:24:24.402Z,101935.94
2022-08-28T01:26:52.280Z,101936.00
2022-08-28T01:29:20.863Z,101935.13
2022-08-28T01:31:48.895Z,101931.59
2022-08-28T01:34:16.697Z,101935.13
2022-08-28T01:36:44.477Z,101939.66
2022-08-28T01:39:13.980Z,101944.16
2022-08-28T01:41:45.434Z,101939.75
2022-08-28T01:44:14.337Z,101946.00
2022-08-28T01:46:46.338Z,101942.50
2022-08-28T01:49:14.221Z,101946.00
2022-08-28T01:54:10.606Z,101950.50
2022-08-28T01:56:39.808Z,101951.38
2022-08-28T02:01:37.148Z,101944.22
2022-08-28T02:09:00.835Z,101949.72
2022-08-28T02:11:29.409Z,101952.41
2022-08-28T02:13:57.211Z,101948.84
2022-08-28T02:16:26.029Z,101954.22
2022-08-28T02:18:55.111Z,101954.22
2022-08-28T02:21:22.787Z,101954.28
2022-08-28T02:23:50.512Z,101958.81
2022-08-28T02:26:18.283Z,101949.81
2022-08-28T02:28:46.139Z,101959.59
2022-08-28T02:31:13.940Z,101955.09
2022-08-28T02:33:43.583Z,101960.56
2022-08-28T02:36:14.633Z,101955.19
2022-08-28T02:38:42.580Z,101955.94
2022-08-28T02:41:11.015Z,101958.75
2022-08-28T02:43:39.106Z,101961.44
2022-08-28T02:46:07.401Z,101958.75
2022-08-28T02:48:36.375Z,101960.56
2022-08-28T02:51:05.612Z,101957.88
2022-08-28T02:53:35.109Z,101961.50
2022-08-28T02:56:03.141Z,101958.81
2022-08-28T02:58:32.770Z,101960.56
2022-08-28T03:01:01.673Z,101964.19
2022-08-28T03:03:31.104Z,101963.31
2022-08-28T03:05:59.860Z,101959.75
2022-08-28T03:08:28.084Z,101962.44
2022-08-28T03:10:57.487Z,101967.81
2022-08-28T03:13:26.945Z,101963.31
2022-08-28T03:15:55.682Z,101966.97
2022-08-28T03:18:24.492Z,101958.03
2022-08-28T03:20:53.762Z,101970.63
2022-08-28T03:23:30.210Z,101963.47
2022-08-28T03:26:00.329Z,101974.16
2022-08-28T03:28:29.099Z,101963.47
2022-08-28T03:30:57.816Z,101965.31
2022-08-28T03:33:26.831Z,101973.38
2022-08-28T03:35:57.851Z,101968.94
2022-08-28T03:38:25.893Z,101969.75
2022-08-28T03:40:53.734Z,101971.53
2022-08-28T03:43:23.980Z,101972.50
2022-08-28T03:45:53.098Z,101971.66
2022-08-28T03:48:21.105Z,101978.75
2022-08-28T03:50:48.995Z,101972.50
2022-08-28T03:53:17.055Z,101979.72
2022-08-28T03:55:44.787Z,101971.66
2022-08-28T03:58:19.070Z,101975.28
2022-08-28T04:00:48.618Z,101984.31
2022-08-28T04:03:16.415Z,101985.19
2022-08-28T04:05:45.604Z,101985.19
2022-08-28T04:08:15.914Z,101987.94
2022-08-28T04:10:44.086Z,101990.63
2022-08-28T04:13:12.344Z,101998.69
2022-08-28T04:15:40.962Z,101990.63
2022-08-28T04:18:10.110Z,102005.81
2022-08-28T04:20:38.302Z,102003.19
2022-08-28T04:23:07.865Z,102003.19
2022-08-28T04:25:35.667Z,101999.66
2022-08-28T04:28:03.452Z,102006.84
2022-08-28T04:30:31.239Z,102001.47
2022-08-28T04:32:59.495Z,102002.44
2022-08-28T04:35:29.066Z,102004.16
2022-08-28T04:37:58.961Z,102009.59
2022-08-28T04:40:26.999Z,102008.72
2022-08-28T04:42:54.727Z,102014.97
2022-08-28T04:45:22.579Z,102007.88
2022-08-28T04:47:50.269Z,102017.66
2022-08-28T04:50:18.068Z,102019.47
2022-08-28T04:52:47.186Z,102021.31
2022-08-28T04:55:15.474Z,102023.13
2022-08-28T04:57:46.038Z,102022.25
2022-08-28T05:00:14.028Z,102025.91
2022-08-28T05:02:41.753Z,102027.75
2022-08-28T05:05:09.909Z,102032.16
2022-08-28T05:07:37.659Z,102028.59
2022-08-28T05:10:08.488Z,102033.97
2022-08-28T05:12:36.904Z,102031.28
2022-08-28T05:15:08.298Z,102025.91
2022-08-28T05:17:36.278Z,102029.47
2022-08-28T05:20:05.832Z,102028.59
2022-08-28T05:22:33.858Z,102026.78
2022-08-28T05:25:02.044Z,102029.47
2022-08-28T05:27:31.088Z,102025.91
2022-08-28T05:30:01.904Z,102024.09
2022-08-28T05:32:30.032Z,102037.53
2022-08-28T05:34:57.779Z,102025.91
2022-08-28T05:37:25.608Z,102031.28
2022-08-28T05:39:53.374Z,102033.88
2022-08-28T05:42:21.099Z,102034.84
2022-08-28T05:44:54.637Z,102036.66
2022-08-28T05:47:22.545Z,102033.13
2022-08-28T05:49:50.840Z,102044.72
2022-08-28T05:52:20.184Z,102046.47
2022-08-28T05:54:48.580Z,102041.09
2022-08-28T05:57:16.354Z,102042.91
2022-08-28T05:59:44.134Z,102048.19
2022-08-28T06:02:13.256Z,102050.00
2022-08-28T06:04:41.020Z,102050.88
2022-08-28T06:07:12.111Z,102050.00
2022-08-28T06:09:39.907Z,102051.84
2022-08-28T06:12:07.733Z,102054.53
2022-08-28T06:14:36.162Z,102053.56
2022-08-28T06:17:04.964Z,102054.44
2022-08-28T06:19:39.296Z,102056.19
2022-08-28T06:22:09.723Z,102056.19
2022-08-28T06:24:37.489Z,102056.09
2022-08-28T06:27:05.890Z,102054.38
2022-08-28T06:29:33.594Z,102060.50
2022-08-28T06:32:04.464Z,102059.75
2022-08-28T06:34:32.304Z,102069.44
2022-08-28T06:37:01.337Z,102075.72
2022-08-28T06:39:29.229Z,102071.19
2022-08-28T06:41:56.886Z,102078.31
2022-08-28T06:44:24.899Z,102078.31
2022-08-28T06:46:54.360Z,102080.91
2022-08-28T06:49:22.295Z,102075.53
2022-08-28T06:51:50.339Z,102079.97
2022-08-28T06:54:22.963Z,102074.59
2022-08-28T06:56:51.459Z,102069.22
2022-08-28T06:59:19.497Z,102070.09
2022-08-28T07:01:47.419Z,102074.50
2022-08-28T07:04:15.496Z,102069.13
2022-08-28T07:06:46.905Z,102072.69
2022-08-28T07:09:15.368Z,102074.50
2022-08-28T07:11:47.334Z,102070.84
2022-08-28T07:14:15.353Z,102075.28
2022-08-28T07:16:44.471Z,102068.97
2022-08-28T07:19:13.309Z,102078.66
2022-08-28T07:21:42.639Z,102078.75
2022-08-28T07:24:11.160Z,102083.34
2022-08-28T07:26:40.911Z,102073.47
2022-08-28T07:29:11.625Z,102082.41
2022-08-28T07:31:40.972Z,102079.78
2022-08-28T07:34:09.471Z,102089.66
2022-08-28T07:36:37.660Z,102079.78
2022-08-28T07:39:07.341Z,102084.28
2022-08-28T07:41:37.410Z,102080.75
2022-08-28T07:44:22.757Z,102087.84
2022-08-28T07:46:54.010Z,102086.81
2022-08-28T07:49:21.738Z,102089.41
2022-08-28T07:51:49.628Z,102085.00
2022-08-28T07:56:49.428Z,102086.66
2022-08-28T07:59:19.419Z,102090.13
2022-08-28T08:01:50.695Z,102090.84
2022-08-28T08:04:20.979Z,102087.13
2022-08-28T08:06:48.771Z,102094.47
2022-08-28T08:09:17.780Z,102094.63
2022-08-28T08:11:46.072Z,102089.59
2022-08-28T08:14:14.921Z,102105.09
2022-08-28T08:16:43.834Z,102103.50
2022-08-28T08:19:13.960Z,102104.63
2022-08-28T08:21:43.750Z,102117.44
2022-08-28T08:24:13.027Z,102107.81
2022-08-28T08:26:58.846Z,102116.91
2022-08-28T08:29:29.219Z,102108.94
2022-08-28T08:31:58.131Z,102110.91
2022-08-28T08:34:25.948Z,102111.91
2022-08-28T08:36:55.375Z,102111.06
2022-08-28T08:39:23.186Z,102114.53
2022-08-28T08:41:52.684Z,102116.44
2022-08-28T08:44:33.979Z,102119.97
2022-08-28T08:47:11.786Z,102109.38
2022-08-28T08:49:43.211Z,102104.09
2022-08-28T08:52:22.604Z,102105.84
2022-08-28T08:54:59.348Z,102113.84
2022-08-28T08:57:28.173Z,102116.66
2022-08-28T08:59:55.979Z,102106.88
2022-08-28T09:02:31.338Z,102104.19
2022-08-28T09:05:02.763Z,102103.47
2022-08-28T09:07:39.623Z,102109.78
2022-08-28T09:10:11.087Z,102106.06
2022-08-28T09:12:44.039Z,102107.81
2022-08-28T09:15:14.897Z,102108.75
2022-08-28T09:17:44.818Z,102115.00
2022-08-28T09:20:14.967Z,102110.59
2022-08-28T09:22:46.058Z,102106.22
2022-08-28T09:25:15.199Z,102106.31
2022-08-28T09:27:46.897Z,102109.09
2022-08-28T09:30:14.882Z,102104.75
2022-08-28T09:32:44.335Z,102110.88
2022-08-28T09:35:16.424Z,102107.34
2022-08-28T09:37:45.820Z,102107.19
2022-08-28T09:40:19.777Z,102104.50
2022-08-28T09:43:19.623Z,102111.78
2022-08-28T09:45:52.743Z,102110.97
2022-08-28T09:48:21.393Z,102108.41
2022-08-28T09:50:58.972Z,102118.38
2022-08-28T09:53:30.746Z,102107.69
2022-08-28T09:56:03.706Z,102104.22
2022-08-28T09:58:34.822Z,102099.72
2022-08-28T10:01:06.709Z,102100.59
2022-08-28T10:03:38.679Z,102097.81
2022-08-28T10:06:10.483Z,102108.56
2022-08-28T10:08:49.616Z,102108.41
2022-08-28T10:11:20.049Z,102106.53
2022-08-28T10:13:51.611Z,102103.84
2022-08-28T10:16:24.728Z,102109.22
2022-08-28T10:18:57.351Z,102101.16
2022-08-28T10:21:28.884Z,102107.28
2022-08-28T10:24:16.586Z,102107.28
2022-08-28T10:26:59.473Z,102099.94
2022-08-28T10:29:34.380Z,102102.44
2022-08-28T10:32:12.284Z,102095.28
2022-08-28T10:34:47.971Z,102098.81
2022-08-28T10:37:24.335Z,102110.28
2022-08-28T10:39:57.751Z,102100.41
2022-08-28T10:42:33.756Z,102115.47
2022-08-28T10:45:06.829Z,102110.09
2022-08-28T10:47:36.075Z,102110.03
2022-08-28T10:50:08.151Z,102106.31
2022-08-28T10:52:39.037Z,102115.31
2022-08-28T10:55:11.812Z,102118.81
2022-08-28T10:57:42.903Z,102115.16
2022-08-28T11:00:12.932Z,102099.13
2022-08-28T11:02:41.929Z,102096.34
2022-08-28T11:05:10.743Z,102103.56
2022-08-28T11:07:41.507Z,102103.47
2022-08-28T11:10:25.424Z,102097.84
2022-08-28T11:12:53.535Z,102099.59
2022-08-28T11:15:40.894Z,102099.59
2022-08-28T11:18:26.221Z,102105.75
2022-08-28T11:20:57.884Z,102100.47
2022-08-28T11:23:38.381Z,102100.53
2022-08-28T11:26:10.304Z,102099.59
2022-08-28T11:28:42.999Z,102114.75
2022-08-28T11:31:31.583Z,102110.34
2022-08-28T11:34:00.953Z,102107.66
2022-08-28T11:36:47.432Z,102109.44
2022-08-28T11:39:22.200Z,102099.75
2022-08-28T11:42:08.364Z,102107.72
2022-08-28T11:44:44.787Z,102115.00
2022-08-28T11:47:31.176Z,102106.84
2022-08-28T11:50:03.916Z,102121.97
2022-08-28T11:52:42.448Z,102112.22
2022-08-28T11:55:18.086Z,102100.53
2022-08-28T11:57:53.175Z,102099.75
2022-08-28T12:00:24.545Z,102097.84
2022-08-28T12:02:54.853Z,102096.97
2022-08-28T12:05:49.901Z,102104.97
2022-08-28T12:08:36.217Z,102113.03
2022-08-28T12:11:04.004Z,102108.53
2022-08-28T12:13:45.981Z,102103.22
2022-08-28T12:16:15.854Z,102110.41
2022-08-28T12:19:03.988Z,102105.91
2022-08-28T12:21:36.421Z,102098.78
2022-08-28T12:24:09.845Z,102096.81
2022-08-28T12:26:44.882Z,102091.53
2022-08-28T12:29:26.826Z,102092.56
2022-08-28T12:32:28.559Z,102087.03
2022-08-28T12:35:11.069Z,102087.88
2022-08-28T12:37:52.711Z,102078.88
2022-08-28T12:40:23.095Z,102079.66
2022-08-28T12:42:55.197Z,102069.69
2022-08-28T12:45:25.863Z,102078.63
2022-08-28T12:47:56.131Z,102082.97
2022-08-28T12:50:28.844Z,102083.78
2022-08-28T12:52:57.886Z,102085.56
2022-08-28T12:55:25.712Z,102089.22
2022-08-28T12:57:53.972Z,102083.78
2022-08-28T13:00:23.077Z,102082.97
2022-08-28T13:02:53.212Z,102090.06
2022-08-28T13:05:29.046Z,102073.19
2022-08-28T13:07:57.425Z,102082.16
2022-08-28T13:10:26.502Z,102064.25
2022-08-28T13:12:58.803Z,102069.53
2022-08-28T13:15:53.474Z,102064.16
2022-08-28T13:18:39.966Z,102058.69
2022-08-28T13:21:32.785Z,102068.41
2022-08-28T13:24:02.920Z,102075.53
2022-08-28T13:26:32.882Z,102070.00
2022-08-28T13:29:01.708Z,102080.66
2022-08-28T13:31:31.377Z,102071.72
2022-08-28T13:34:10.371Z,102072.56
2022-08-28T13:36:45.452Z,102064.44
2022-08-28T13:39:14.775Z,102067.19
2022-08-28T13:41:44.152Z,102064.44
2022-08-28T13:44:22.107Z,102060.97
2022-08-28T13:46:49.802Z,102060.97
2022-08-28T13:49:17.660Z,102060.19
2022-08-28T13:51:47.148Z,102049.34
2022-08-28T13:54:16.097Z,102044.84
2022-08-28T13:56:44.083Z,102058.28
2022-08-28T13:59:11.859Z,102051.06
2022-08-28T14:01:57.802Z,102046.66
2022-08-28T14:04:26.514Z,102059.22
2022-08-28T14:06:55.632Z,102053.84
2022-08-28T14:09:23.370Z,102054.72
2022-08-28T14:11:51.581Z,102061.06
2022-08-28T14:14:19.330Z,102059.22
2022-08-28T14:16:47.321Z,102061.91
2022-08-28T14:19:15.163Z,102066.34
2022-08-28T14:21:42.884Z,102066.34
2022-08-28T14:24:12.337Z,102053.69
2022-08-28T14:26:40.162Z,102060.81
2022-08-28T14:29:08.944Z,102060.03
2022-08-28T14:31:37.174Z,102060.03
2022-08-28T14:34:06.026Z,102051.88
2022-08-28T14:36:33.834Z,102051.78
2022-08-28T14:39:06.063Z,102053.53
2022-08-28T14:44:03.837Z,102052.56
2022-08-28T14:46:33.094Z,102058.91
2022-08-28T14:49:01.689Z,102050.03
2022-08-28T14:51:31.059Z,102046.66
2022-08-28T14:53:59.756Z,102044.84
2022-08-28T14:56:28.477Z,102043.25
2022-08-28T14:58:59.973Z,102040.50
2022-08-28T15:01:36.261Z,102040.56
2022-08-28T15:04:09.828Z,102055.78
2022-08-28T15:06:37.937Z,102046.75
2022-08-28T15:09:05.781Z,102050.31
2022-08-28T15:11:35.413Z,102050.31
2022-08-28T15:14:03.272Z,102055.59
2022-08-28T15:16:33.779Z,102051.97
2022-08-28T15:19:02.071Z,102055.44
2022-08-28T15:21:32.174Z,102059.06
2022-08-28T15:24:00.837Z,102052.91
2022-08-28T15:26:28.975Z,102054.72
2022-08-28T15:29:02.166Z,102068.16
2022-08-28T15:31:30.203Z,102055.69
2022-08-28T15:33:59.395Z,102061.16
2022-08-28T15:36:27.090Z,102054.88
2022-08-28T15:39:12.428Z,102055.84
2022-08-28T15:41:40.216Z,102056.81
2022-08-28T15:44:10.971Z,102049.75
2022-08-28T15:46:41.268Z,102046.28
2022-08-28T15:49:10.457Z,102045.44
2022-08-28T15:51:39.606Z,102037.44
2022-08-28T15:54:07.299Z,102035.72
2022-08-28T15:56:35.078Z,102044.63
2022-08-28T15:59:02.803Z,102042.81
2022-08-28T16:01:30.468Z,102042.75
2022-08-28T16:03:58.179Z,102042.81
2022-08-28T16:06:28.926Z,102038.56
2022-08-28T16:08:56.870Z,102041.25
2022-08-28T16:11:24.690Z,102040.28
2022-08-28T16:13:52.824Z,102042.97
2022-08-28T16:16:21.060Z,102034.19
2022-08-28T16:18:48.798Z,102043.94
2022-08-28T16:21:16.946Z,102035.00
2022-08-28T16:23:46.031Z,102036.72
2022-08-28T16:26:15.880Z,102046.72
2022-08-28T16:28:44.719Z,102042.19
2022-08-28T16:31:19.449Z,102042.19
2022-08-28T16:33:48.819Z,102036.81
2022-08-28T16:36:18.594Z,102038.66
2022-08-28T16:38:49.165Z,102043.16
2022-08-28T16:41:28.285Z,102044.03
2022-08-28T16:43:57.980Z,102051.22
2022-08-28T16:46:26.847Z,102042.19
2022-08-28T16:48:55.316Z,102046.72
2022-08-28T16:51:26.815Z,102043.06
2022-08-28T16:53:56.433Z,102038.56
2022-08-28T16:56:25.020Z,102044.09
2022-08-28T16:58:53.410Z,102034.28
2022-08-28T17:01:24.140Z,102042.34
2022-08-28T17:03:52.544Z,102046.00
2022-08-28T17:06:23.373Z,102049.66
2022-08-28T17:08:55.896Z,102054.94
2022-08-28T17:11:26.338Z,102044.19
2022-08-28T17:13:54.325Z,102039.75
2022-08-28T17:16:22.867Z,102044.09
2022-08-28T17:18:52.539Z,102042.19
2022-08-28T17:21:38.335Z,102048.44
2022-08-28T17:24:06.839Z,102039.50
2022-08-28T17:26:35.999Z,102036.81
2022-08-28T17:29:03.968Z,102045.84
2022-08-28T17:31:31.782Z,102044.09
2022-08-28T17:33:59.604Z,102044.09
2022-08-28T17:36:33.737Z,102051.28
2022-08-28T17:39:02.598Z,102055.03
2022-08-28T17:41:30.365Z,102058.56
2022-08-28T17:43:59.514Z,102056.91
2022-08-28T17:46:27.240Z,102054.22
2022-08-28T17:48:55.745Z,102055.34
2022-08-28T17:51:41.816Z,102049.97
2022-08-28T17:54:11.016Z,102055.34
2022-08-28T17:56:39.011Z,102062.59
2022-08-28T17:59:08.186Z,102064.50
2022-08-28T18:01:36.215Z,102059.28
2022-08-28T18:04:05.187Z,102065.53
2022-08-28T18:06:33.230Z,102072.81
2022-08-28T18:09:01.010Z,102068.31
2022-08-28T18:11:28.798Z,102068.47
2022-08-28T18:13:56.486Z,102078.44
2022-08-28T18:16:30.937Z,102071.25
2022-08-28T18:18:59.539Z,102068.72
2022-08-28T18:21:27.500Z,102083.00
2022-08-28T18:23:55.215Z,102068.81
2022-08-28T18:26:23.009Z,102075.09
2022-08-28T18:28:50.947Z,102073.22
2022-08-28T18:31:19.164Z,102072.41
2022-08-28T18:33:48.346Z,102084.91
2022-08-28T18:36:17.107Z,102082.41
2022-08-28T18:38:45.536Z,102081.63
2022-08-28T18:41:13.328Z,102086.19
2022-08-28T18:43:41.987Z,102083.47
2022-08-28T18:46:10.231Z,102084.56
2022-08-28T18:48:38.707Z,102082.81
2022-08-28T18:51:08.737Z,102090.09
2022-08-28T18:53:36.612Z,102093.63
2022-08-28T18:56:05.465Z,102101.84
2022-08-28T18:58:33.241Z,102099.16
2022-08-28T19:01:02.192Z,102094.66
2022-08-28T19:03:30.151Z,102099.31
2022-08-28T19:05:57.944Z,102108.31
2022-08-28T19:08:27.430Z,102112.81
2022-08-28T19:10:55.496Z,102114.56
2022-08-28T19:13:23.287Z,102116.31
2022-08-28T19:15:52.527Z,102112.59
2022-08-28T19:18:20.974Z,102114.25
2022-08-28T19:20:49.019Z,102117.72
2022-08-28T19:23:17.798Z,102120.25
2022-08-28T19:25:48.441Z,102128.25
2022-08-28T19:28:16.250Z,102122.69
2022-08-28T19:30:44.081Z,102121.78
2022-08-28T19:33:12.617Z,102123.44
2022-08-28T19:35:40.313Z,102129.63
2022-08-28T19:38:08.196Z,102129.47
2022-08-28T19:40:35.973Z,102132.06
2022-08-28T19:43:05.947Z,102129.28
2022-08-28T19:45:34.099Z,102129.16
2022-08-28T19:48:01.847Z,102126.31
2022-08-28T19:50:29.628Z,102134.38
2022-08-28T19:52:57.321Z,102136.97
2022-08-28T19:55:26.138Z,102145.84
2022-08-28T19:57:54.183Z,102139.44
2022-08-28T20:00:24.627Z,102143.88
2022-08-28T20:02:52.690Z,102147.25
2022-08-28T20:05:21.341Z,102148.13
2022-08-28T20:07:49.015Z,102151.59
2022-08-28T20:10:17.439Z,102156.03
2022-08-28T20:12:48.255Z,102145.19
2022-08-28T20:15:18.601Z,102156.81
2022-08-28T20:17:49.688Z,102151.38
2022-08-28T20:20:18.798Z,102159.34
2022-08-28T20:22:46.495Z,102161.06
2022-08-28T20:25:15.589Z,102158.31
2022-08-28T20:27:43.277Z,102166.31
2022-08-28T20:30:11.923Z,102170.72
2022-08-28T20:32:41.572Z,102161.72
2022-08-28T20:35:12.243Z,102162.59
2022-08-28T20:37:44.701Z,102171.44
2022-08-28T20:40:14.477Z,102166.91
2022-08-28T20:42:42.277Z,102171.38
2022-08-28T20:45:10.393Z,102173.09
2022-08-28T20:47:38.324Z,102174.84
2022-08-28T20:50:06.495Z,102182.91
2022-08-28T20:52:35.654Z,102180.22
2022-08-28T20:55:03.451Z,102184.63
2022-08-28T20:57:31.188Z,102189.09
2022-08-28T21:00:02.246Z,102186.41
2022-08-28T21:02:33.246Z,102191.78
2022-08-28T21:05:01.087Z,102189.00
2022-08-28T21:07:28.939Z,102192.53
2022-08-28T21:10:06.918Z,102194.28
2022-08-28T21:12:36.042Z,102203.22
2022-08-28T21:15:04.019Z,102208.53
2022-08-28T21:17:31.803Z,102207.66
2022-08-28T21:20:00.972Z,102204.00
2022-08-28T21:22:29.835Z,102207.56
2022-08-28T21:24:59.010Z,102203.91
2022-08-28T21:27:26.882Z,102209.28
2022-08-28T21:29:55.948Z,102211.06
2022-08-28T21:32:23.668Z,102205.69
2022-08-28T21:34:52.745Z,102205.69
2022-08-28T21:37:20.575Z,102206.44
2022-08-28T21:39:48.665Z,102215.47
2022-08-28T21:42:17.713Z,102212.78
2022-08-28T21:44:48.314Z,102213.66
2022-08-28T21:47:21.427Z,102223.44
2022-08-28T21:49:50.640Z,102220.75
2022-08-28T21:52:18.854Z,102219.84
2022-08-28T21:54:46.595Z,102221.63
2022-08-28T21:57:14.445Z,102218.94
2022-08-28T21:59:43.930Z,102216.25
2022-08-28T22:02:11.657Z,102218.88
2022-08-28T22:04:39.611Z,102226.00
2022-08-28T22:07:07.551Z,102218.00
2022-08-28T22:09:35.340Z,102229.63
2022-08-28T22:12:03.204Z,102224.25
2022-08-28T22:14:30.941Z,102218.88
2022-08-28T22:16:59.981Z,102222.53
2022-08-28T22:19:27.808Z,102221.63
2022-08-28T22:22:13.232Z,102229.69
2022-08-28T22:24:41.081Z,102218.00
2022-08-28T22:27:10.573Z,102220.69
2022-08-28T22:29:38.376Z,102211.69
2022-08-28T22:32:08.396Z,102217.16
2022-08-28T22:34:38.912Z,102218.94
2022-08-28T22:37:06.692Z,102216.19
2022-08-28T22:39:34.410Z,102217.16
2022-08-28T22:42:02.208Z,102219.84
2022-08-28T22:44:29.858Z,102214.53
2022-08-28T22:46:57.942Z,102218.06
2022-08-28T22:49:27.048Z,102215.38
2022-08-28T22:51:54.829Z,102216.25
2022-08-28T22:54:22.541Z,102221.63
2022-08-28T22:56:50.387Z,102214.53
2022-08-28T22:59:18.645Z,102216.34
2022-08-28T23:01:46.668Z,102218.06
2022-08-28T23:04:14.477Z,102218.06
2022-08-28T23:06:43.637Z,102214.53
2022-08-28T23:09:11.306Z,102214.47
2022-08-28T23:11:39.062Z,102217.16
2022-08-28T23:14:06.820Z,102221.56
2022-08-28T23:16:35.357Z,102227.91
2022-08-28T23:19:08.681Z,102222.59
2022-08-28T23:21:40.958Z,102223.53
2022-08-28T23:24:13.605Z,102221.72
2022-08-28T23:26:41.455Z,102207.41
2022-08-28T23:29:09.726Z,102207.50
2022-08-28T23:31:37.948Z,102207.50
2022-08-28T23:34:06.238Z,102201.22
2022-08-28T23:36:35.850Z,102201.22
2022-08-28T23:39:04.809Z,102196.81
2022-08-28T23:41:34.056Z,102199.50
2022-08-28T23:44:06.436Z,102191.44
2022-08-28T23:46:36.529Z,102193.25
2022-08-28T23:49:04.286Z,102195.06
2022-08-28T23:51:32.689Z,102200.44
2022-08-28T23:54:00.398Z,102194.28
2022-08-28T23:56:28.389Z,102191.59
2022-08-28T23:58:57.451Z,102186.22
